sensor_id;sensor_type;location;lat;lon;timestamp;temperature;humidity
7232;DHT22;3657;49.630;11.018;2022-08-04T00:00:09;28.10;51.40
7232;DHT22;3657;49.630;11.018;2022-08-04T00:02:55;28.10;51.50
7232;DHT22;3657;49.630;11.018;2022-08-04T00:05:30;28.00;51.50
7232;DHT22;3657;49.630;11.018;2022-08-04T00:08:05;28.00;51.60
7232;DHT22;3657;49.630;11.018;2022-08-04T00:10:32;28.00;51.70
7232;DHT22;3657;49.630;11.018;2022-08-04T00:13:02;27.90;51.70
7232;DHT22;3657;49.630;11.018;2022-08-04T00:15:31;27.90;51.80
7232;DHT22;3657;49.630;11.018;2022-08-04T00:18:02;27.80;51.80
7232;DHT22;3657;49.630;11.018;2022-08-04T00:20:31;27.80;51.90
7232;DHT22;3657;49.630;11.018;2022-08-04T00:22:58;27.70;51.90
7232;DHT22;3657;49.630;11.018;2022-08-04T00:25:26;27.70;51.90
7232;DHT22;3657;49.630;11.018;2022-08-04T00:27:53;27.70;52.00
7232;DHT22;3657;49.630;11.018;2022-08-04T00:30:20;27.60;52.00
7232;DHT22;3657;49.630;11.018;2022-08-04T00:32:48;27.60;52.10
7232;DHT22;3657;49.630;11.018;2022-08-04T00:35:17;27.60;52.20
7232;DHT22;3657;49.630;11.018;2022-08-04T00:37:44;27.50;52.10
7232;DHT22;3657;49.630;11.018;2022-08-04T00:40:24;27.50;52.20
7232;DHT22;3657;49.630;11.018;2022-08-04T00:43:05;27.40;52.20
7232;DHT22;3657;49.630;11.018;2022-08-04T00:45:43;27.40;52.30
7232;DHT22;3657;49.630;11.018;2022-08-04T00:48:24;27.40;52.40
7232;DHT22;3657;49.630;11.018;2022-08-04T00:51:04;27.30;52.30
7232;DHT22;3657;49.630;11.018;2022-08-04T00:53:40;27.30;52.40
7232;DHT22;3657;49.630;11.018;2022-08-04T00:56:21;27.20;52.40
7232;DHT22;3657;49.630;11.018;2022-08-04T00:59:02;27.20;52.50
7232;DHT22;3657;49.630;11.018;2022-08-04T01:01:50;27.10;52.60
7232;DHT22;3657;49.630;11.018;2022-08-04T01:04:29;27.10;52.60
7232;DHT22;3657;49.630;11.018;2022-08-04T01:07:12;27.10;52.70
7232;DHT22;3657;49.630;11.018;2022-08-04T01:09:49;27.00;52.70
7232;DHT22;3657;49.630;11.018;2022-08-04T01:12:40;27.00;52.80
7232;DHT22;3657;49.630;11.018;2022-08-04T01:15:17;26.90;52.80
7232;DHT22;3657;49.630;11.018;2022-08-04T01:17:56;26.90;52.90
7232;DHT22;3657;49.630;11.018;2022-08-04T01:20:25;26.90;52.90
7232;DHT22;3657;49.630;11.018;2022-08-04T01:23:15;26.80;52.90
7232;DHT22;3657;49.630;11.018;2022-08-04T01:29:04;26.80;53.10
7232;DHT22;3657;49.630;11.018;2022-08-04T01:31:37;26.70;53.10
7232;DHT22;3657;49.630;11.018;2022-08-04T01:34:05;26.70;53.20
7232;DHT22;3657;49.630;11.018;2022-08-04T01:36:41;26.60;53.20
7232;DHT22;3657;49.630;11.018;2022-08-04T01:39:11;26.60;53.20
7232;DHT22;3657;49.630;11.018;2022-08-04T01:41:52;26.50;53.30
7232;DHT22;3657;49.630;11.018;2022-08-04T01:44:23;26.50;53.30
7232;DHT22;3657;49.630;11.018;2022-08-04T01:46:51;26.50;53.40
7232;DHT22;3657;49.630;11.018;2022-08-04T01:49:20;26.50;53.50
7232;DHT22;3657;49.630;11.018;2022-08-04T01:51:49;26.40;53.50
7232;DHT22;3657;49.630;11.018;2022-08-04T01:54:17;26.40;53.50
7232;DHT22;3657;49.630;11.018;2022-08-04T01:56:46;26.30;53.60
7232;DHT22;3657;49.630;11.018;2022-08-04T01:59:16;26.30;53.60
7232;DHT22;3657;49.630;11.018;2022-08-04T02:01:45;26.30;53.70
7232;DHT22;3657;49.630;11.018;2022-08-04T02:04:13;26.20;53.70
7232;DHT22;3657;49.630;11.018;2022-08-04T02:06:48;26.20;53.70
7232;DHT22;3657;49.630;11.018;2022-08-04T02:09:22;26.10;53.70
7232;DHT22;3657;49.630;11.018;2022-08-04T02:11:59;26.10;53.80
7232;DHT22;3657;49.630;11.018;2022-08-04T02:14:29;26.10;53.80
7232;DHT22;3657;49.630;11.018;2022-08-04T02:17:13;26.00;53.80
7232;DHT22;3657;49.630;11.018;2022-08-04T02:19:53;26.00;53.90
7232;DHT22;3657;49.630;11.018;2022-08-04T02:22:26;26.00;54.40
7232;DHT22;3657;49.630;11.018;2022-08-04T02:25:04;25.90;53.90
7232;DHT22;3657;49.630;11.018;2022-08-04T02:27:44;25.90;54.00
7232;DHT22;3657;49.630;11.018;2022-08-04T02:30:17;25.90;54.10
7232;DHT22;3657;49.630;11.018;2022-08-04T02:32:46;25.80;54.10
7232;DHT22;3657;49.630;11.018;2022-08-04T02:35:15;25.80;54.10
7232;DHT22;3657;49.630;11.018;2022-08-04T02:37:47;25.80;54.30
7232;DHT22;3657;49.630;11.018;2022-08-04T02:40:19;25.70;54.30
7232;DHT22;3657;49.630;11.018;2022-08-04T02:42:46;25.70;54.40
7232;DHT22;3657;49.630;11.018;2022-08-04T02:45:17;25.60;54.40
7232;DHT22;3657;49.630;11.018;2022-08-04T02:47:47;25.60;54.40
7232;DHT22;3657;49.630;11.018;2022-08-04T02:50:17;25.60;54.50
7232;DHT22;3657;49.630;11.018;2022-08-04T02:52:44;25.60;54.60
7232;DHT22;3657;49.630;11.018;2022-08-04T02:55:13;25.50;54.50
7232;DHT22;3657;49.630;11.018;2022-08-04T02:57:43;25.50;54.60
7232;DHT22;3657;49.630;11.018;2022-08-04T03:00:12;25.40;54.70
7232;DHT22;3657;49.630;11.018;2022-08-04T03:02:53;25.40;54.80
7232;DHT22;3657;49.630;11.018;2022-08-04T03:05:24;25.40;54.90
7232;DHT22;3657;49.630;11.018;2022-08-04T03:08:05;25.30;54.90
7232;DHT22;3657;49.630;11.018;2022-08-04T03:13:47;25.30;55.10
7232;DHT22;3657;49.630;11.018;2022-08-04T03:16:34;25.20;55.20
7232;DHT22;3657;49.630;11.018;2022-08-04T03:22:28;25.10;55.30
7232;DHT22;3657;49.630;11.018;2022-08-04T03:31:16;25.10;55.70
7232;DHT22;3657;49.630;11.018;2022-08-04T03:34:00;25.00;55.70
7232;DHT22;3657;49.630;11.018;2022-08-04T03:36:54;25.00;55.60
7232;DHT22;3657;49.630;11.018;2022-08-04T03:39:55;24.90;55.70
7232;DHT22;3657;49.630;11.018;2022-08-04T03:42:44;24.90;55.70
7232;DHT22;3657;49.630;11.018;2022-08-04T03:48:44;24.80;55.70
7232;DHT22;3657;49.630;11.018;2022-08-04T03:51:26;24.80;55.80
7232;DHT22;3657;49.630;11.018;2022-08-04T03:54:42;24.70;56.30
7232;DHT22;3657;49.630;11.018;2022-08-04T03:57:36;24.70;55.90
7232;DHT22;3657;49.630;11.018;2022-08-04T04:00:08;24.70;55.80
7232;DHT22;3657;49.630;11.018;2022-08-04T04:03:00;24.70;55.90
7232;DHT22;3657;49.630;11.018;2022-08-04T04:05:54;24.70;56.00
7232;DHT22;3657;49.630;11.018;2022-08-04T04:08:41;24.60;55.90
7232;DHT22;3657;49.630;11.018;2022-08-04T04:12:01;24.60;55.90
7232;DHT22;3657;49.630;11.018;2022-08-04T04:14:55;24.60;55.90
7232;DHT22;3657;49.630;11.018;2022-08-04T04:17:51;24.50;56.00
7232;DHT22;3657;49.630;11.018;2022-08-04T04:20:40;24.50;56.00
7232;DHT22;3657;49.630;11.018;2022-08-04T04:23:24;24.40;55.90
7232;DHT22;3657;49.630;11.018;2022-08-04T04:26:03;24.40;56.00
7232;DHT22;3657;49.630;11.018;2022-08-04T04:28:43;24.40;56.00
7232;DHT22;3657;49.630;11.018;2022-08-04T04:34:25;24.40;56.10
7232;DHT22;3657;49.630;11.018;2022-08-04T04:37:18;24.30;55.90
7232;DHT22;3657;49.630;11.018;2022-08-04T04:39:54;24.30;56.00
7232;DHT22;3657;49.630;11.018;2022-08-04T04:42:44;24.30;56.20
7232;DHT22;3657;49.630;11.018;2022-08-04T04:45:23;24.30;56.10
7232;DHT22;3657;49.630;11.018;2022-08-04T04:47:57;24.30;56.20
7232;DHT22;3657;49.630;11.018;2022-08-04T04:50:33;24.30;56.20
7232;DHT22;3657;49.630;11.018;2022-08-04T04:53:19;24.30;56.20
7232;DHT22;3657;49.630;11.018;2022-08-04T04:55:51;24.20;56.10
7232;DHT22;3657;49.630;11.018;2022-08-04T04:58:21;24.20;56.20
7232;DHT22;3657;49.630;11.018;2022-08-04T05:01:16;24.20;56.10
7232;DHT22;3657;49.630;11.018;2022-08-04T05:04:07;24.20;56.20
7232;DHT22;3657;49.630;11.018;2022-08-04T05:06:49;24.20;56.20
7232;DHT22;3657;49.630;11.018;2022-08-04T05:09:29;24.20;56.20
7232;DHT22;3657;49.630;11.018;2022-08-04T05:12:19;24.20;56.20
7232;DHT22;3657;49.630;11.018;2022-08-04T05:14:49;24.20;56.20
7232;DHT22;3657;49.630;11.018;2022-08-04T05:17:21;24.20;56.20
7232;DHT22;3657;49.630;11.018;2022-08-04T05:19:59;24.20;56.20
7232;DHT22;3657;49.630;11.018;2022-08-04T05:22:30;24.20;56.20
7232;DHT22;3657;49.630;11.018;2022-08-04T05:25:05;24.20;56.20
7232;DHT22;3657;49.630;11.018;2022-08-04T05:27:37;24.20;56.20
7232;DHT22;3657;49.630;11.018;2022-08-04T05:30:06;24.30;56.20
7232;DHT22;3657;49.630;11.018;2022-08-04T05:32:42;24.30;56.10
7232;DHT22;3657;49.630;11.018;2022-08-04T05:35:14;24.40;56.10
7232;DHT22;3657;49.630;11.018;2022-08-04T05:37:43;24.40;55.90
7232;DHT22;3657;49.630;11.018;2022-08-04T05:40:12;24.50;56.00
7232;DHT22;3657;49.630;11.018;2022-08-04T05:42:39;24.60;55.90
7232;DHT22;3657;49.630;11.018;2022-08-04T05:45:07;24.70;55.80
7232;DHT22;3657;49.630;11.018;2022-08-04T05:47:36;24.80;55.60
7232;DHT22;3657;49.630;11.018;2022-08-04T05:50:05;25.00;55.50
7232;DHT22;3657;49.630;11.018;2022-08-04T05:52:34;25.20;55.30
7232;DHT22;3657;49.630;11.018;2022-08-04T05:55:02;25.30;55.00
7232;DHT22;3657;49.630;11.018;2022-08-04T05:57:29;25.60;54.90
7232;DHT22;3657;49.630;11.018;2022-08-04T05:59:59;25.70;54.50
7232;DHT22;3657;49.630;11.018;2022-08-04T06:02:27;25.90;54.40
7232;DHT22;3657;49.630;11.018;2022-08-04T06:04:57;26.10;54.30
7232;DHT22;3657;49.630;11.018;2022-08-04T06:07:25;26.20;54.10
7232;DHT22;3657;49.630;11.018;2022-08-04T06:09:52;26.30;54.00
7232;DHT22;3657;49.630;11.018;2022-08-04T06:12:22;26.50;53.90
7232;DHT22;3657;49.630;11.018;2022-08-04T06:14:53;26.60;53.60
7232;DHT22;3657;49.630;11.018;2022-08-04T06:17:22;26.70;53.50
7232;DHT22;3657;49.630;11.018;2022-08-04T06:19:51;26.90;53.70
7232;DHT22;3657;49.630;11.018;2022-08-04T06:22:21;27.00;53.60
7232;DHT22;3657;49.630;11.018;2022-08-04T06:24:49;27.20;53.60
7232;DHT22;3657;49.630;11.018;2022-08-04T06:27:18;27.30;53.50
7232;DHT22;3657;49.630;11.018;2022-08-04T06:29:46;27.50;53.60
7232;DHT22;3657;49.630;11.018;2022-08-04T06:32:15;27.60;53.30
7232;DHT22;3657;49.630;11.018;2022-08-04T06:34:53;27.70;53.20
7232;DHT22;3657;49.630;11.018;2022-08-04T06:37:23;27.90;53.30
7232;DHT22;3657;49.630;11.018;2022-08-04T06:39:51;28.00;53.30
7232;DHT22;3657;49.630;11.018;2022-08-04T06:42:20;28.10;52.70
7232;DHT22;3657;49.630;11.018;2022-08-04T06:44:50;28.30;52.90
7232;DHT22;3657;49.630;11.018;2022-08-04T06:47:17;28.40;52.70
7232;DHT22;3657;49.630;11.018;2022-08-04T06:49:46;28.50;53.00
7232;DHT22;3657;49.630;11.018;2022-08-04T06:52:14;28.70;53.10
7232;DHT22;3657;49.630;11.018;2022-08-04T06:54:44;28.80;53.30
7232;DHT22;3657;49.630;11.018;2022-08-04T06:57:13;29.00;53.20
7232;DHT22;3657;49.630;11.018;2022-08-04T06:59:41;29.10;53.00
7232;DHT22;3657;49.630;11.018;2022-08-04T07:02:13;29.20;53.30
7232;DHT22;3657;49.630;11.018;2022-08-04T07:04:41;29.40;53.20
7232;DHT22;3657;49.630;11.018;2022-08-04T07:07:09;29.50;53.00
7232;DHT22;3657;49.630;11.018;2022-08-04T07:09:36;29.70;53.10
7232;DHT22;3657;49.630;11.018;2022-08-04T07:12:05;29.90;53.40
7232;DHT22;3657;49.630;11.018;2022-08-04T07:14:32;30.00;53.30
7232;DHT22;3657;49.630;11.018;2022-08-04T07:17:02;30.10;52.60
7232;DHT22;3657;49.630;11.018;2022-08-04T07:19:29;30.30;52.40
7232;DHT22;3657;49.630;11.018;2022-08-04T07:21:57;30.50;52.40
7232;DHT22;3657;49.630;11.018;2022-08-04T07:24:28;30.60;51.50
7232;DHT22;3657;49.630;11.018;2022-08-04T07:26:55;30.80;51.50
7232;DHT22;3657;49.630;11.018;2022-08-04T07:29:24;31.00;51.30
7232;DHT22;3657;49.630;11.018;2022-08-04T07:31:52;31.00;49.80
7232;DHT22;3657;49.630;11.018;2022-08-04T07:34:19;31.10;50.00
7232;DHT22;3657;49.630;11.018;2022-08-04T07:36:47;31.40;50.50
7232;DHT22;3657;49.630;11.018;2022-08-04T07:39:15;31.70;49.40
7232;DHT22;3657;49.630;11.018;2022-08-04T07:41:42;31.90;50.80
7232;DHT22;3657;49.630;11.018;2022-08-04T07:44:09;31.90;49.20
7232;DHT22;3657;49.630;11.018;2022-08-04T07:46:41;32.10;49.70
7232;DHT22;3657;49.630;11.018;2022-08-04T07:49:08;32.00;48.90
7232;DHT22;3657;49.630;11.018;2022-08-04T07:51:36;32.10;48.80
7232;DHT22;3657;49.630;11.018;2022-08-04T07:54:04;32.00;48.60
7232;DHT22;3657;49.630;11.018;2022-08-04T07:56:32;32.10;48.70
7232;DHT22;3657;49.630;11.018;2022-08-04T07:59:01;32.40;50.70
7232;DHT22;3657;49.630;11.018;2022-08-04T08:01:28;32.60;48.30
7232;DHT22;3657;49.630;11.018;2022-08-04T08:03:57;32.80;50.40
7232;DHT22;3657;49.630;11.018;2022-08-04T08:06:25;33.10;49.70
7232;DHT22;3657;49.630;11.018;2022-08-04T08:08:53;33.20;50.60
7232;DHT22;3657;49.630;11.018;2022-08-04T08:11:20;33.20;50.00
7232;DHT22;3657;49.630;11.018;2022-08-04T08:13:47;33.40;50.70
7232;DHT22;3657;49.630;11.018;2022-08-04T08:16:14;33.30;47.30
7232;DHT22;3657;49.630;11.018;2022-08-04T08:18:41;33.50;50.90
7232;DHT22;3657;49.630;11.018;2022-08-04T08:21:09;33.60;50.90
7232;DHT22;3657;49.630;11.018;2022-08-04T08:23:37;33.80;50.90
7232;DHT22;3657;49.630;11.018;2022-08-04T08:26:05;33.90;48.10
7232;DHT22;3657;49.630;11.018;2022-08-04T08:28:31;33.90;48.70
7232;DHT22;3657;49.630;11.018;2022-08-04T08:30:58;34.00;50.40
7232;DHT22;3657;49.630;11.018;2022-08-04T08:33:25;34.20;47.90
7232;DHT22;3657;49.630;11.018;2022-08-04T08:35:57;34.30;46.10
7232;DHT22;3657;49.630;11.018;2022-08-04T08:38:38;34.40;45.60
7232;DHT22;3657;49.630;11.018;2022-08-04T08:47:43;35.00;44.90
7232;DHT22;3657;49.630;11.018;2022-08-04T08:50:36;35.00;45.00
7232;DHT22;3657;49.630;11.018;2022-08-04T08:53:19;35.30;48.50
7232;DHT22;3657;49.630;11.018;2022-08-04T08:56:06;35.40;47.50
7232;DHT22;3657;49.630;11.018;2022-08-04T08:59:06;35.50;46.00
7232;DHT22;3657;49.630;11.018;2022-08-04T09:01:47;35.90;47.60
7232;DHT22;3657;49.630;11.018;2022-08-04T09:04:35;35.90;45.60
7232;DHT22;3657;49.630;11.018;2022-08-04T09:07:18;36.10;46.50
7232;DHT22;3657;49.630;11.018;2022-08-04T09:09:56;36.10;45.20
7232;DHT22;3657;49.630;11.018;2022-08-04T09:12:31;35.90;43.70
7232;DHT22;3657;49.630;11.018;2022-08-04T09:15:04;36.10;47.60
7232;DHT22;3657;49.630;11.018;2022-08-04T09:17:39;36.30;46.90
7232;DHT22;3657;49.630;11.018;2022-08-04T09:20:12;36.50;44.50
7232;DHT22;3657;49.630;11.018;2022-08-04T09:22:46;36.60;46.80
7232;DHT22;3657;49.630;11.018;2022-08-04T09:25:21;36.80;47.10
7232;DHT22;3657;49.630;11.018;2022-08-04T09:27:53;36.80;44.10
7232;DHT22;3657;49.630;11.018;2022-08-04T09:30:25;36.70;44.60
7232;DHT22;3657;49.630;11.018;2022-08-04T09:33:00;36.80;44.50
7232;DHT22;3657;49.630;11.018;2022-08-04T09:35:36;37.00;43.10
7232;DHT22;3657;49.630;11.018;2022-08-04T09:38:14;36.70;42.80
7232;DHT22;3657;49.630;11.018;2022-08-04T09:40:47;36.60;42.40
7232;DHT22;3657;49.630;11.018;2022-08-04T09:43:28;36.90;45.10
7232;DHT22;3657;49.630;11.018;2022-08-04T09:46:01;37.10;46.10
7232;DHT22;3657;49.630;11.018;2022-08-04T09:48:35;37.50;47.00
7232;DHT22;3657;49.630;11.018;2022-08-04T09:51:13;37.60;41.50
7232;DHT22;3657;49.630;11.018;2022-08-04T09:53:50;37.20;41.80
7232;DHT22;3657;49.630;11.018;2022-08-04T09:56:23;37.20;43.30
7232;DHT22;3657;49.630;11.018;2022-08-04T09:59:00;37.20;43.40
7232;DHT22;3657;49.630;11.018;2022-08-04T10:01:32;37.70;43.70
7232;DHT22;3657;49.630;11.018;2022-08-04T10:04:00;37.90;45.40
7232;DHT22;3657;49.630;11.018;2022-08-04T10:06:55;38.10;44.70
7232;DHT22;3657;49.630;11.018;2022-08-04T10:09:40;38.30;46.20
7232;DHT22;3657;49.630;11.018;2022-08-04T10:12:24;38.20;43.60
7232;DHT22;3657;49.630;11.018;2022-08-04T10:15:01;38.20;40.60
7232;DHT22;3657;49.630;11.018;2022-08-04T10:17:41;38.20;41.30
7232;DHT22;3657;49.630;11.018;2022-08-04T10:20:18;38.30;41.90
7232;DHT22;3657;49.630;11.018;2022-08-04T10:22:55;38.50;41.10
7232;DHT22;3657;49.630;11.018;2022-08-04T10:25:33;38.60;44.50
7232;DHT22;3657;49.630;11.018;2022-08-04T10:28:05;39.00;45.50
7232;DHT22;3657;49.630;11.018;2022-08-04T10:30:39;39.00;43.80
7232;DHT22;3657;49.630;11.018;2022-08-04T10:33:10;39.20;45.20
7232;DHT22;3657;49.630;11.018;2022-08-04T10:35:45;39.10;41.80
7232;DHT22;3657;49.630;11.018;2022-08-04T10:38:17;39.20;42.90
7232;DHT22;3657;49.630;11.018;2022-08-04T10:40:48;39.30;43.50
7232;DHT22;3657;49.630;11.018;2022-08-04T10:43:24;39.50;44.80
7232;DHT22;3657;49.630;11.018;2022-08-04T10:46:00;39.70;43.80
7232;DHT22;3657;49.630;11.018;2022-08-04T10:48:35;39.70;39.60
7232;DHT22;3657;49.630;11.018;2022-08-04T10:51:14;39.50;39.90
7232;DHT22;3657;49.630;11.018;2022-08-04T10:53:43;39.70;44.50
7232;DHT22;3657;49.630;11.018;2022-08-04T10:56:14;40.00;43.20
7232;DHT22;3657;49.630;11.018;2022-08-04T10:58:47;40.30;44.30
7232;DHT22;3657;49.630;11.018;2022-08-04T11:01:30;40.50;43.80
7232;DHT22;3657;49.630;11.018;2022-08-04T11:04:03;40.50;40.20
7232;DHT22;3657;49.630;11.018;2022-08-04T11:06:31;40.50;43.70
7232;DHT22;3657;49.630;11.018;2022-08-04T11:09:00;40.80;44.40
7232;DHT22;3657;49.630;11.018;2022-08-04T11:11:32;40.90;44.40
7232;DHT22;3657;49.630;11.018;2022-08-04T11:14:03;40.90;43.90
7232;DHT22;3657;49.630;11.018;2022-08-04T11:16:38;41.00;43.30
7232;DHT22;3657;49.630;11.018;2022-08-04T11:19:16;40.80;41.00
7232;DHT22;3657;49.630;11.018;2022-08-04T11:21:51;40.60;41.00
7232;DHT22;3657;49.630;11.018;2022-08-04T11:24:24;40.10;40.00
7232;DHT22;3657;49.630;11.018;2022-08-04T11:26:57;39.90;42.70
7232;DHT22;3657;49.630;11.018;2022-08-04T11:29:28;39.80;41.30
7232;DHT22;3657;49.630;11.018;2022-08-04T11:31:59;39.80;41.90
7232;DHT22;3657;49.630;11.018;2022-08-04T11:34:27;40.20;43.20
7232;DHT22;3657;49.630;11.018;2022-08-04T11:36:58;40.50;43.60
7232;DHT22;3657;49.630;11.018;2022-08-04T11:39:32;40.80;43.80
7232;DHT22;3657;49.630;11.018;2022-08-04T11:42:05;41.00;43.70
7232;DHT22;3657;49.630;11.018;2022-08-04T11:44:39;41.10;43.30
7232;DHT22;3657;49.630;11.018;2022-08-04T11:47:20;40.60;43.00
7232;DHT22;3657;49.630;11.018;2022-08-04T11:49:53;40.90;43.40
7232;DHT22;3657;49.630;11.018;2022-08-04T11:52:21;41.10;43.40
7232;DHT22;3657;49.630;11.018;2022-08-04T11:54:50;41.30;42.60
7232;DHT22;3657;49.630;11.018;2022-08-04T11:57:17;41.30;42.60
7232;DHT22;3657;49.630;11.018;2022-08-04T11:59:44;41.40;42.90
7232;DHT22;3657;49.630;11.018;2022-08-04T12:02:36;41.30;43.20
7232;DHT22;3657;49.630;11.018;2022-08-04T12:05:08;41.40;43.10
7232;DHT22;3657;49.630;11.018;2022-08-04T12:07:44;41.30;43.60
7232;DHT22;3657;49.630;11.018;2022-08-04T12:10:25;41.30;43.80
7232;DHT22;3657;49.630;11.018;2022-08-04T12:13:02;41.20;43.20
7232;DHT22;3657;49.630;11.018;2022-08-04T12:15:45;41.10;42.30
7232;DHT22;3657;49.630;11.018;2022-08-04T12:18:20;41.00;44.20
7232;DHT22;3657;49.630;11.018;2022-08-04T12:20:50;40.80;40.90
7232;DHT22;3657;49.630;11.018;2022-08-04T12:23:24;40.90;43.90
7232;DHT22;3657;49.630;11.018;2022-08-04T12:25:55;41.00;44.30
7232;DHT22;3657;49.630;11.018;2022-08-04T12:28:28;41.20;43.60
7232;DHT22;3657;49.630;11.018;2022-08-04T12:31:01;41.40;43.20
7232;DHT22;3657;49.630;11.018;2022-08-04T12:33:34;41.50;43.20
7232;DHT22;3657;49.630;11.018;2022-08-04T12:36:12;41.60;43.20
7232;DHT22;3657;49.630;11.018;2022-08-04T12:38:47;41.70;43.50
7232;DHT22;3657;49.630;11.018;2022-08-04T12:41:15;41.80;42.10
7232;DHT22;3657;49.630;11.018;2022-08-04T12:43:45;41.80;43.60
7232;DHT22;3657;49.630;11.018;2022-08-04T12:46:21;41.80;43.70
7232;DHT22;3657;49.630;11.018;2022-08-04T12:48:50;41.90;43.20
7232;DHT22;3657;49.630;11.018;2022-08-04T12:51:17;42.00;43.00
7232;DHT22;3657;49.630;11.018;2022-08-04T12:53:46;42.00;43.50
7232;DHT22;3657;49.630;11.018;2022-08-04T12:56:13;42.10;43.20
7232;DHT22;3657;49.630;11.018;2022-08-04T12:58:46;42.20;43.40
7232;DHT22;3657;49.630;11.018;2022-08-04T13:01:18;42.20;43.20
7232;DHT22;3657;49.630;11.018;2022-08-04T13:03:52;42.30;43.10
7232;DHT22;3657;49.630;11.018;2022-08-04T13:06:23;42.30;43.30
7232;DHT22;3657;49.630;11.018;2022-08-04T13:08:50;42.30;43.10
7232;DHT22;3657;49.630;11.018;2022-08-04T13:11:18;42.40;42.90
7232;DHT22;3657;49.630;11.018;2022-08-04T13:13:49;42.40;42.90
7232;DHT22;3657;49.630;11.018;2022-08-04T13:16:28;42.50;42.80
7232;DHT22;3657;49.630;11.018;2022-08-04T13:18:56;42.60;42.70
7232;DHT22;3657;49.630;11.018;2022-08-04T13:21:26;42.70;42.40
7232;DHT22;3657;49.630;11.018;2022-08-04T13:23:56;42.80;42.50
7232;DHT22;3657;49.630;11.018;2022-08-04T13:26:25;42.90;42.50
7232;DHT22;3657;49.630;11.018;2022-08-04T13:28:53;43.00;42.40
7232;DHT22;3657;49.630;11.018;2022-08-04T13:31:26;43.10;42.20
7232;DHT22;3657;49.630;11.018;2022-08-04T13:33:54;43.00;42.10
7232;DHT22;3657;49.630;11.018;2022-08-04T13:36:31;43.00;42.00
7232;DHT22;3657;49.630;11.018;2022-08-04T13:39:02;43.00;40.20
7232;DHT22;3657;49.630;11.018;2022-08-04T13:41:31;43.10;42.20
7232;DHT22;3657;49.630;11.018;2022-08-04T13:44:02;43.10;42.10
7232;DHT22;3657;49.630;11.018;2022-08-04T13:46:37;43.00;41.80
7232;DHT22;3657;49.630;11.018;2022-08-04T13:49:08;43.10;42.00
7232;DHT22;3657;49.630;11.018;2022-08-04T13:51:38;43.10;41.90
7232;DHT22;3657;49.630;11.018;2022-08-04T13:54:05;43.10;41.00
7232;DHT22;3657;49.630;11.018;2022-08-04T13:56:37;43.10;41.30
7232;DHT22;3657;49.630;11.018;2022-08-04T13:59:09;43.20;41.10
7232;DHT22;3657;49.630;11.018;2022-08-04T14:01:39;43.30;41.40
7232;DHT22;3657;49.630;11.018;2022-08-04T14:04:11;43.30;41.20
7232;DHT22;3657;49.630;11.018;2022-08-04T14:06:49;43.40;41.40
7232;DHT22;3657;49.630;11.018;2022-08-04T14:09:19;43.40;41.40
7232;DHT22;3657;49.630;11.018;2022-08-04T14:11:48;43.30;41.30
7232;DHT22;3657;49.630;11.018;2022-08-04T14:14:17;43.30;41.30
7232;DHT22;3657;49.630;11.018;2022-08-04T14:16:55;43.20;41.40
7232;DHT22;3657;49.630;11.018;2022-08-04T14:19:22;43.20;41.00
7232;DHT22;3657;49.630;11.018;2022-08-04T14:21:50;43.20;41.00
7232;DHT22;3657;49.630;11.018;2022-08-04T14:24:22;43.20;41.00
7232;DHT22;3657;49.630;11.018;2022-08-04T14:26:49;43.10;40.90
7232;DHT22;3657;49.630;11.018;2022-08-04T14:29:17;43.10;40.90
7232;DHT22;3657;49.630;11.018;2022-08-04T14:31:47;43.10;40.80
7232;DHT22;3657;49.630;11.018;2022-08-04T14:34:24;43.10;40.70
7232;DHT22;3657;49.630;11.018;2022-08-04T14:36:53;43.10;40.60
7232;DHT22;3657;49.630;11.018;2022-08-04T14:39:36;43.00;40.60
7232;DHT22;3657;49.630;11.018;2022-08-04T14:42:04;42.90;40.60
7232;DHT22;3657;49.630;11.018;2022-08-04T14:44:31;42.90;40.60
7232;DHT22;3657;49.630;11.018;2022-08-04T14:46:58;42.80;40.40
7232;DHT22;3657;49.630;11.018;2022-08-04T14:49:26;42.60;39.80
7232;DHT22;3657;49.630;11.018;2022-08-04T14:51:55;42.50;40.20
7232;DHT22;3657;49.630;11.018;2022-08-04T14:54:28;42.50;40.50
7232;DHT22;3657;49.630;11.018;2022-08-04T14:56:57;42.50;40.00
7232;DHT22;3657;49.630;11.018;2022-08-04T14:59:24;42.50;40.20
7232;DHT22;3657;49.630;11.018;2022-08-04T15:01:52;42.50;40.20
7232;DHT22;3657;49.630;11.018;2022-08-04T15:04:22;42.50;40.40
7232;DHT22;3657;49.630;11.018;2022-08-04T15:06:50;42.50;40.30
7232;DHT22;3657;49.630;11.018;2022-08-04T15:09:19;42.40;40.00
7232;DHT22;3657;49.630;11.018;2022-08-04T15:11:47;42.30;40.20
7232;DHT22;3657;49.630;11.018;2022-08-04T15:14:14;42.30;40.30
7232;DHT22;3657;49.630;11.018;2022-08-04T15:16:41;42.30;40.50
7232;DHT22;3657;49.630;11.018;2022-08-04T15:19:07;42.20;40.50
7232;DHT22;3657;49.630;11.018;2022-08-04T15:21:35;42.20;40.50
7232;DHT22;3657;49.630;11.018;2022-08-04T15:24:03;42.20;40.20
7232;DHT22;3657;49.630;11.018;2022-08-04T15:26:34;42.20;40.20
7232;DHT22;3657;49.630;11.018;2022-08-04T15:29:07;42.10;40.30
7232;DHT22;3657;49.630;11.018;2022-08-04T15:31:37;42.10;39.60
7232;DHT22;3657;49.630;11.018;2022-08-04T15:34:06;42.10;39.70
7232;DHT22;3657;49.630;11.018;2022-08-04T15:36:49;42.10;39.30
7232;DHT22;3657;49.630;11.018;2022-08-04T15:39:27;42.00;38.90
7232;DHT22;3657;49.630;11.018;2022-08-04T15:42:08;41.90;39.50
7232;DHT22;3657;49.630;11.018;2022-08-04T15:44:53;41.90;39.70
7232;DHT22;3657;49.630;11.018;2022-08-04T15:47:24;41.80;40.00
7232;DHT22;3657;49.630;11.018;2022-08-04T15:50:05;41.80;40.10
7232;DHT22;3657;49.630;11.018;2022-08-04T15:53:01;41.50;39.20
7232;DHT22;3657;49.630;11.018;2022-08-04T15:55:33;41.10;37.50
7232;DHT22;3657;49.630;11.018;2022-08-04T15:58:03;40.60;39.10
7232;DHT22;3657;49.630;11.018;2022-08-04T16:03:43;40.80;37.90
7232;DHT22;3657;49.630;11.018;2022-08-04T16:06:43;40.90;37.30
7232;DHT22;3657;49.630;11.018;2022-08-04T16:09:20;40.90;38.60
7232;DHT22;3657;49.630;11.018;2022-08-04T16:11:48;41.00;36.70
7232;DHT22;3657;49.630;11.018;2022-08-04T16:14:16;41.10;38.40
7232;DHT22;3657;49.630;11.018;2022-08-04T16:16:47;41.00;38.30
7232;DHT22;3657;49.630;11.018;2022-08-04T16:19:22;40.30;37.10
7232;DHT22;3657;49.630;11.018;2022-08-04T16:21:52;40.30;38.90
7232;DHT22;3657;49.630;11.018;2022-08-04T16:24:20;39.80;38.30
7232;DHT22;3657;49.630;11.018;2022-08-04T16:26:50;39.30;37.80
7232;DHT22;3657;49.630;11.018;2022-08-04T16:29:30;39.10;37.30
7232;DHT22;3657;49.630;11.018;2022-08-04T16:32:19;38.90;38.20
7232;DHT22;3657;49.630;11.018;2022-08-04T16:34:50;38.70;37.60
7232;DHT22;3657;49.630;11.018;2022-08-04T16:37:18;38.40;38.80
7232;DHT22;3657;49.630;11.018;2022-08-04T16:39:46;38.40;39.70
7232;DHT22;3657;49.630;11.018;2022-08-04T16:42:30;38.60;40.60
7232;DHT22;3657;49.630;11.018;2022-08-04T16:45:00;38.70;39.80
7232;DHT22;3657;49.630;11.018;2022-08-04T16:48:01;38.70;39.20
7232;DHT22;3657;49.630;11.018;2022-08-04T16:50:32;38.50;39.50
7232;DHT22;3657;49.630;11.018;2022-08-04T16:53:00;38.50;39.10
7232;DHT22;3657;49.630;11.018;2022-08-04T16:55:35;38.40;38.50
7232;DHT22;3657;49.630;11.018;2022-08-04T16:58:01;38.00;37.30